Time;durP1;ratioP1;P1;durP2;ratioP2;P2;SDS_P1;SDS_P2;PMS_P1;PMS_P2;Temp;Humidity;BMP_temperature;BMP_pressure;BME280_temperature;BME280_humidity;BME280_pressure;Samples;Min_cycle;Max_cycle;Signal;HPM_P1;HPM_P2
2022/03/07 00:00:37;;;;;;;12.15;7.05;;;0.40;99.90;;;;;;5149157;27;20037;-63
2022/03/07 00:03:03;;;;;;;12.35;6.53;;;0.40;99.90;;;;;;5149395;27;20435;-63
2022/03/07 00:05:29;;;;;;;9.88;6.28;;;0.30;99.90;;;;;;5165635;27;20086;-63
2022/03/07 00:07:55;;;;;;;11.23;6.97;;;0.30;99.90;;;;;;5149379;27;20125;-63
2022/03/07 00:10:21;;;;;;;10.50;6.55;;;0.20;99.90;;;;;;5148187;27;20046;-63
2022/03/07 00:12:46;;;;;;;10.23;6.90;;;0.20;99.90;;;;;;5149847;27;20040;-63
2022/03/07 00:15:12;;;;;;;10.40;7.25;;;0.10;99.90;;;;;;5148738;27;20035;-63
2022/03/07 00:17:38;;;;;;;10.25;7.28;;;0.10;99.90;;;;;;5148988;27;20039;-63
2022/03/07 00:20:04;;;;;;;15.77;7.95;;;0.00;99.90;;;;;;5149713;27;20054;-63
2022/03/07 00:22:30;;;;;;;13.13;7.70;;;0.00;99.90;;;;;;5149406;27;20050;-63
2022/03/07 00:24:56;;;;;;;12.55;6.97;;;0.00;99.90;;;;;;5148728;27;20542;-63
2022/03/07 00:27:21;;;;;;;12.50;7.57;;;0.00;99.90;;;;;;5149204;27;20110;-63
2022/03/07 00:29:47;;;;;;;11.95;7.40;;;-0.10;99.90;;;;;;5149653;27;20466;-63
2022/03/07 00:32:13;;;;;;;11.30;7.05;;;-0.10;99.90;;;;;;5149522;27;20494;-63
2022/03/07 00:34:39;;;;;;;12.45;6.30;;;-0.10;99.90;;;;;;5148477;27;20030;-63
2022/03/07 00:37:05;;;;;;;10.00;6.68;;;-0.10;99.90;;;;;;5150754;27;20034;-63
2022/03/07 00:39:31;;;;;;;10.10;6.65;;;-0.10;99.90;;;;;;5149138;27;20479;-63
2022/03/07 00:41:57;;;;;;;11.20;7.45;;;-0.10;99.90;;;;;;5150135;27;20133;-63
2022/03/07 00:44:22;;;;;;;12.57;6.72;;;-0.10;99.90;;;;;;5114098;27;20046;-63
2022/03/07 00:46:48;;;;;;;11.80;7.13;;;-0.20;99.90;;;;;;5149111;27;20031;-63
2022/03/07 00:49:14;;;;;;;14.65;7.60;;;-0.20;99.90;;;;;;5146488;27;20130;-63
2022/03/07 00:51:39;;;;;;;11.02;7.50;;;-0.20;99.90;;;;;;5149931;27;20033;-63
2022/03/07 00:54:05;;;;;;;19.45;11.70;;;-0.30;99.90;;;;;;5148283;27;20055;-63
2022/03/07 00:56:31;;;;;;;22.55;13.43;;;-0.30;99.90;;;;;;5149383;27;20035;-63
2022/03/07 00:58:57;;;;;;;23.35;12.88;;;-0.10;99.90;;;;;;5148541;27;20049;-63
2022/03/07 01:01:22;;;;;;;25.17;13.27;;;-0.40;99.90;;;;;;5148831;27;20079;-63
2022/03/07 01:03:49;;;;;;;23.80;13.20;;;-0.40;99.90;;;;;;5146378;27;20034;-63
2022/03/07 01:06:15;;;;;;;21.70;12.75;;;-0.40;99.90;;;;;;5149564;27;20038;-63
2022/03/07 01:08:41;;;;;;;20.13;11.65;;;-0.40;99.90;;;;;;5146392;27;20050;-62
2022/03/07 01:11:07;;;;;;;18.92;11.32;;;-0.40;99.90;;;;;;5147828;27;20168;-63
2022/03/07 01:13:32;;;;;;;19.45;11.20;;;-0.40;99.90;;;;;;5148711;27;20467;-63
2022/03/07 01:15:58;;;;;;;17.98;11.57;;;-0.40;99.90;;;;;;5148576;27;20033;-63
2022/03/07 01:18:24;;;;;;;19.48;12.57;;;-0.50;99.90;;;;;;5146309;27;20050;-62
2022/03/07 01:20:51;;;;;;;18.75;11.50;;;-0.50;99.90;;;;;;5147235;27;20593;-63
2022/03/07 01:23:17;;;;;;;19.50;11.60;;;-0.50;99.90;;;;;;5150434;27;20054;-63
2022/03/07 01:25:42;;;;;;;18.35;12.93;;;-0.50;99.90;;;;;;5150458;27;20390;-63
2022/03/07 01:28:08;;;;;;;19.25;11.63;;;-0.50;99.90;;;;;;5153609;27;20133;-63
2022/03/07 01:30:34;;;;;;;19.13;12.43;;;-0.50;99.90;;;;;;5151893;27;20037;-63
2022/03/07 01:32:59;;;;;;;18.00;12.23;;;-0.60;99.90;;;;;;5152230;27;20074;-63
2022/03/07 01:35:25;;;;;;;16.92;12.20;;;-0.60;99.90;;;;;;5152227;27;21375;-63
2022/03/07 01:37:51;;;;;;;18.98;13.02;;;-0.60;99.90;;;;;;5152008;27;20422;-63
2022/03/07 01:40:17;;;;;;;18.02;12.15;;;-0.60;99.90;;;;;;5151407;27;20046;-63
2022/03/07 01:42:42;;;;;;;17.52;11.80;;;-0.60;99.90;;;;;;5153268;27;20038;-63
2022/03/07 01:45:14;;;;;;;16.95;10.93;;;-0.60;99.90;;;;;;5152330;27;20035;-63
2022/03/07 01:47:41;;;;;;;22.40;10.82;;;-0.60;99.90;;;;;;5153654;27;20493;-63
2022/03/07 01:50:09;;;;;;;19.65;12.45;;;-0.70;99.90;;;;;;5152202;27;20048;-63
2022/03/07 01:52:39;;;;;;;18.23;11.52;;;-0.70;99.90;;;;;;5151549;27;20030;-63
2022/03/07 01:55:06;;;;;;;19.55;10.70;;;-0.70;99.90;;;;;;5148944;27;20062;-63
2022/03/07 01:57:35;;;;;;;14.30;9.98;;;-0.70;99.90;;;;;;5165299;27;20060;-63
2022/03/07 02:00:01;;;;;;;17.23;9.10;;;-0.70;99.90;;;;;;5152145;27;20498;-63
2022/03/07 02:02:27;;;;;;;16.77;9.80;;;-0.70;99.90;;;;;;5152924;27;20051;-63
2022/03/07 02:04:53;;;;;;;11.75;8.70;;;-0.80;99.90;;;;;;5149413;27;20106;-63
2022/03/07 02:07:18;;;;;;;14.30;9.27;;;-0.80;99.90;;;;;;5152289;27;20146;-63
2022/03/07 02:09:44;;;;;;;14.93;9.57;;;-0.80;99.90;;;;;;5148571;27;20034;-63
2022/03/07 02:12:10;;;;;;;14.77;9.30;;;-0.80;99.90;;;;;;5150220;27;20039;-63
2022/03/07 02:14:36;;;;;;;12.38;8.73;;;-0.80;99.90;;;;;;5150286;27;20026;-63
2022/03/07 02:17:02;;;;;;;15.20;8.95;;;-0.90;99.90;;;;;;5151606;27;20071;-63
2022/03/07 02:19:27;;;;;;;17.58;8.90;;;-0.90;99.90;;;;;;5149383;27;20042;-63
2022/03/07 02:22:01;;;;;;;13.73;7.97;;;-0.90;99.90;;;;;;5150091;27;20045;-63
2022/03/07 02:24:26;;;;;;;16.48;8.82;;;-0.90;99.90;;;;;;5150323;27;20069;-63
2022/03/07 02:27:06;;;;;;;15.73;9.25;;;-0.90;99.90;;;;;;5151033;27;20597;-62
2022/03/07 02:29:33;;;;;;;17.20;9.23;;;-1.00;99.90;;;;;;5130735;27;20045;-63
2022/03/07 02:31:59;;;;;;;13.65;8.88;;;-1.00;99.90;;;;;;5151233;27;20113;-63
2022/03/07 02:34:25;;;;;;;13.32;8.90;;;-1.00;99.90;;;;;;5149178;27;20054;-63
2022/03/07 02:36:51;;;;;;;13.95;9.23;;;-1.00;99.90;;;;;;5152141;27;20047;-63
2022/03/07 02:39:17;;;;;;;17.27;9.50;;;-1.00;99.90;;;;;;5150626;27;20478;-63
2022/03/07 02:41:45;;;;;;;15.73;8.45;;;-1.00;99.90;;;;;;5149619;27;20058;-63
2022/03/07 02:44:11;;;;;;;16.65;9.38;;;-1.00;99.90;;;;;;5149937;27;20091;-63
2022/03/07 02:46:37;;;;;;;15.57;9.05;;;-1.00;99.90;;;;;;5150755;27;20035;-63
2022/03/07 02:49:04;;;;;;;14.73;8.63;;;-1.00;99.90;;;;;;5151687;27;20094;-63
2022/03/07 02:51:31;;;;;;;11.90;8.45;;;-1.00;99.90;;;;;;5148724;27;20074;-63
2022/03/07 02:53:57;;;;;;;16.38;8.60;;;-1.10;99.90;;;;;;5150448;27;20045;-63
2022/03/07 02:56:22;;;;;;;12.43;7.97;;;-1.10;99.90;;;;;;5151087;27;20042;-63
2022/03/07 02:58:48;;;;;;;12.38;8.48;;;-1.10;99.90;;;;;;5130584;27;20051;-63
2022/03/07 03:01:14;;;;;;;12.93;8.35;;;-1.10;99.90;;;;;;5149713;27;20042;-63
2022/03/07 03:03:39;;;;;;;14.20;8.45;;;-1.10;99.90;;;;;;5151058;27;20039;-63
2022/03/07 03:06:05;;;;;;;13.00;7.93;;;-1.10;99.90;;;;;;5149619;27;20042;-63
2022/03/07 03:08:31;;;;;;;11.45;8.50;;;-1.20;99.90;;;;;;5150568;27;20046;-63
2022/03/07 03:10:57;;;;;;;12.43;7.95;;;-1.10;99.90;;;;;;5150054;27;20416;-63
2022/03/07 03:13:23;;;;;;;14.38;8.05;;;-1.20;99.90;;;;;;5148953;27;20064;-63
2022/03/07 03:15:50;;;;;;;15.93;8.30;;;-1.20;99.90;;;;;;5150265;27;20045;-62
2022/03/07 03:18:17;;;;;;;13.23;8.82;;;-1.20;99.90;;;;;;5147232;27;20114;-63
2022/03/07 03:20:45;;;;;;;16.60;8.07;;;-1.20;99.90;;;;;;5145319;27;20106;-63
2022/03/07 03:23:10;;;;;;;14.70;8.20;;;-1.10;99.90;;;;;;5147429;27;20082;-63
2022/03/07 03:25:36;;;;;;;13.13;8.00;;;-1.20;99.90;;;;;;5148450;27;20136;-63
2022/03/07 03:28:02;;;;;;;13.43;8.60;;;-1.20;99.90;;;;;;5149660;27;20122;-63
2022/03/07 03:30:28;;;;;;;12.63;7.70;;;-1.30;99.90;;;;;;5150559;27;20061;-63
2022/03/07 03:32:54;;;;;;;13.05;8.73;;;-1.30;99.90;;;;;;5150723;27;20414;-63
2022/03/07 03:35:20;;;;;;;16.38;8.43;;;-1.30;99.90;;;;;;5150604;27;20038;-63
2022/03/07 03:37:45;;;;;;;12.63;7.90;;;-1.30;99.90;;;;;;5148378;27;20032;-62
2022/03/07 03:40:12;;;;;;;12.98;8.23;;;-1.40;99.90;;;;;;5146505;27;20027;-63
2022/03/07 03:42:39;;;;;;;11.93;8.05;;;-1.50;99.90;;;;;;5145549;27;20027;-63
2022/03/07 03:45:08;;;;;;;19.70;8.95;;;-1.50;99.90;;;;;;5145271;27;20038;-63
2022/03/07 03:47:41;;;;;;;15.32;8.55;;;-1.50;99.90;;;;;;5146655;27;20038;-63
2022/03/07 03:50:10;;;;;;;12.25;8.07;;;-1.50;99.90;;;;;;5147241;27;20042;-63
2022/03/07 03:52:37;;;;;;;12.38;8.15;;;-1.50;99.90;;;;;;5147701;27;20053;-63
2022/03/07 03:55:07;;;;;;;13.75;7.78;;;-1.50;99.90;;;;;;5147567;27;20045;-63
2022/03/07 03:57:33;;;;;;;14.30;8.48;;;-1.50;99.90;;;;;;5147785;27;20168;-63
2022/03/07 03:59:59;;;;;;;15.57;8.25;;;-1.60;99.90;;;;;;5147543;27;20483;-63
2022/03/07 04:02:24;;;;;;;13.02;8.45;;;-1.70;99.90;;;;;;5147013;27;20030;-63
2022/03/07 04:04:50;;;;;;;12.13;7.78;;;-1.70;99.90;;;;;;5145587;27;20026;-63
2022/03/07 04:07:17;;;;;;;15.13;9.10;;;-1.70;99.90;;;;;;5147484;27;20066;-63
2022/03/07 04:09:42;;;;;;;13.90;9.20;;;-1.80;99.90;;;;;;5147411;27;20038;-63
2022/03/07 04:12:08;;;;;;;14.73;9.43;;;-1.80;99.90;;;;;;5148248;27;20043;-63
2022/03/07 04:14:34;;;;;;;13.65;8.90;;;-1.80;99.90;;;;;;5149744;27;20046;-63
2022/03/07 04:17:00;;;;;;;14.70;8.00;;;-1.80;99.90;;;;;;5149411;27;20393;-63
2022/03/07 04:19:26;;;;;;;14.60;8.57;;;-1.70;99.90;;;;;;5148473;27;20035;-62
2022/03/07 04:21:55;;;;;;;13.70;9.10;;;-1.70;99.90;;;;;;5148538;27;20185;-63
2022/03/07 04:24:20;;;;;;;14.70;9.00;;;-1.70;99.90;;;;;;5145871;27;20489;-62
2022/03/07 04:26:46;;;;;;;14.02;8.80;;;-1.70;99.90;;;;;;5149686;27;20134;-63
2022/03/07 04:29:12;;;;;;;15.52;9.27;;;-1.70;99.90;;;;;;5145234;27;20034;-63
2022/03/07 04:31:41;;;;;;;16.83;9.35;;;-1.60;99.90;;;;;;5149495;27;20518;-63
2022/03/07 04:34:07;;;;;;;14.95;8.77;;;-0.60;99.90;;;;;;5146548;27;20129;-62
2022/03/07 04:36:35;;;;;;;12.43;8.95;;;-1.90;99.90;;;;;;5146919;27;20097;-63
2022/03/07 04:39:01;;;;;;;14.55;8.80;;;-1.70;99.90;;;;;;5148317;27;20057;-63
2022/03/07 04:41:27;;;;;;;13.90;9.43;;;-1.70;99.90;;;;;;5148138;27;20059;-62
2022/03/07 04:43:53;;;;;;;15.43;9.75;;;-1.70;99.90;;;;;;5148843;27;20080;-62
2022/03/07 04:46:19;;;;;;;14.98;9.20;;;-1.70;99.90;;;;;;5148931;27;20038;-63
2022/03/07 04:48:45;;;;;;;14.30;8.52;;;-1.70;99.90;;;;;;5147668;27;20045;-62
2022/03/07 04:51:11;;;;;;;15.07;8.77;;;-1.70;99.90;;;;;;5149469;27;20046;-62
2022/03/07 04:53:37;;;;;;;13.85;8.57;;;-1.70;99.90;;;;;;5145116;27;20041;-63
2022/03/07 04:56:03;;;;;;;13.18;8.43;;;-1.80;99.90;;;;;;5147006;27;20035;-62
2022/03/07 04:58:28;;;;;;;15.05;9.10;;;-1.80;99.90;;;;;;5147143;27;20489;-63
2022/03/07 05:00:54;;;;;;;13.70;9.48;;;-1.70;99.90;;;;;;5150096;27;20070;-63
2022/03/07 05:03:21;;;;;;;13.35;8.80;;;-1.80;99.90;;;;;;5150851;27;20027;-62
2022/03/07 05:05:48;;;;;;;14.68;9.02;;;-1.80;99.90;;;;;;5151709;27;20031;-62
2022/03/07 05:08:14;;;;;;;14.00;9.18;;;-1.80;99.90;;;;;;5150703;27;20034;-62
2022/03/07 05:10:39;;;;;;;12.88;8.32;;;-1.80;99.90;;;;;;5152067;27;20479;-63
2022/03/07 05:13:05;;;;;;;13.85;8.68;;;-1.80;99.90;;;;;;5152412;27;20934;-62
2022/03/07 05:15:30;;;;;;;14.82;8.85;;;-1.80;99.90;;;;;;5149903;27;20375;-62
2022/03/07 05:17:56;;;;;;;13.95;8.55;;;-1.80;99.90;;;;;;5149972;27;20065;-62
2022/03/07 05:20:23;;;;;;;12.68;8.95;;;-1.80;99.90;;;;;;5152001;27;20050;-62
2022/03/07 05:22:49;;;;;;;15.52;9.13;;;-1.70;99.90;;;;;;5149119;27;20376;-63
2022/03/07 05:25:17;;;;;;;14.60;8.85;;;-1.70;99.90;;;;;;5150217;27;20038;-62
2022/03/07 05:27:43;;;;;;;16.63;7.85;;;-1.70;99.90;;;;;;5149403;27;20038;-62
2022/03/07 05:30:13;;;;;;;15.70;9.38;;;-1.70;99.90;;;;;;5148974;27;20035;-63
2022/03/07 05:32:38;;;;;;;16.85;8.90;;;-1.70;99.90;;;;;;5149439;27;20039;-63
2022/03/07 05:35:05;;;;;;;17.13;9.35;;;-1.70;99.90;;;;;;5150344;27;20446;-63
2022/03/07 05:37:30;;;;;;;13.35;8.65;;;-1.70;99.90;;;;;;5151938;27;20041;-62
2022/03/07 05:39:56;;;;;;;14.00;9.18;;;-1.70;99.90;;;;;;5152826;27;20030;-62
2022/03/07 05:42:22;;;;;;;16.13;9.13;;;-1.70;99.90;;;;;;5151157;27;20114;-63
2022/03/07 05:44:47;;;;;;;17.42;8.90;;;-1.70;99.90;;;;;;5151498;27;20046;-63
2022/03/07 05:47:13;;;;;;;16.35;8.77;;;-1.70;99.90;;;;;;5148806;27;20050;-63
2022/03/07 05:49:39;;;;;;;18.77;11.80;;;-1.70;99.90;;;;;;5147798;27;20034;-62
2022/03/07 05:52:06;;;;;;;18.23;9.75;;;-1.70;99.90;;;;;;5149706;27;20038;-63
2022/03/07 05:54:31;;;;;;;16.63;10.88;;;-1.60;99.90;;;;;;5150700;27;20400;-63
2022/03/07 05:56:57;;;;;;;18.13;9.60;;;-1.70;99.90;;;;;;5151364;27;20035;-62
2022/03/07 05:59:23;;;;;;;15.73;9.32;;;-1.70;99.90;;;;;;5151118;27;20053;-62
2022/03/07 06:01:49;;;;;;;12.40;8.38;;;-1.70;99.90;;;;;;5150137;27;20042;-63
2022/03/07 06:04:15;;;;;;;15.50;9.02;;;-1.70;99.90;;;;;;5149250;27;20038;-62
2022/03/07 06:06:41;;;;;;;15.88;9.73;;;-1.80;99.90;;;;;;5137567;27;20118;-63
2022/03/07 06:09:06;;;;;;;15.95;8.60;;;-1.80;99.90;;;;;;5147863;27;20047;-63
2022/03/07 06:11:33;;;;;;;15.10;8.77;;;-1.80;99.90;;;;;;5149331;27;20489;-63
2022/03/07 06:13:58;;;;;;;13.25;8.88;;;-1.80;99.90;;;;;;5146350;27;20046;-62
2022/03/07 06:16:24;;;;;;;15.23;9.20;;;-1.80;99.90;;;;;;5146820;27;20367;-63
2022/03/07 06:18:50;;;;;;;15.45;9.07;;;-1.80;99.90;;;;;;5147215;27;20027;-62
2022/03/07 06:21:15;;;;;;;16.45;9.55;;;-1.80;99.90;;;;;;5148914;27;20038;-63
2022/03/07 06:23:42;;;;;;;16.17;9.40;;;-1.80;99.90;;;;;;5145766;27;20058;-62
2022/03/07 06:26:08;;;;;;;15.23;9.85;;;-1.80;99.90;;;;;;5151074;27;20053;-62
2022/03/07 06:28:34;;;;;;;16.08;10.20;;;-1.70;99.90;;;;;;5150206;27;20510;-62
2022/03/07 06:31:00;;;;;;;18.17;10.55;;;-1.70;99.90;;;;;;5150765;27;20109;-63
2022/03/07 06:33:26;;;;;;;18.50;10.48;;;-1.70;99.90;;;;;;5151606;27;20031;-63
2022/03/07 06:35:52;;;;;;;16.10;10.48;;;-1.60;99.90;;;;;;5145220;27;20061;-63
2022/03/07 06:38:19;;;;;;;18.52;10.57;;;-1.60;99.90;;;;;;5147171;27;20109;-63
2022/03/07 06:40:45;;;;;;;19.38;10.82;;;-1.60;99.90;;;;;;5148207;27;20035;-62
2022/03/07 06:43:12;;;;;;;17.83;10.02;;;-1.60;99.90;;;;;;5147230;27;20395;-63
2022/03/07 06:45:38;;;;;;;15.25;9.77;;;-1.50;99.90;;;;;;5149523;27;20083;-63
2022/03/07 06:48:04;;;;;;;15.85;10.20;;;-1.50;99.90;;;;;;5150428;27;20039;-63
2022/03/07 06:50:30;;;;;;;15.63;9.57;;;-1.50;99.90;;;;;;5150917;27;20030;-63
2022/03/07 06:52:56;;;;;;;17.98;11.90;;;-1.40;99.90;;;;;;5151948;27;20042;-63
2022/03/07 06:55:22;;;;;;;15.82;10.45;;;-1.40;99.90;;;;;;5146724;27;20387;-63
2022/03/07 06:57:48;;;;;;;14.20;9.07;;;-1.30;99.90;;;;;;5148590;27;20031;-63
2022/03/07 07:00:16;;;;;;;18.13;10.25;;;-1.20;99.90;;;;;;5133155;27;20927;-63
2022/03/07 07:02:43;;;;;;;18.35;10.80;;;-1.20;99.90;;;;;;5147616;27;20109;-63
2022/03/07 07:05:10;;;;;;;14.80;9.90;;;-1.10;99.90;;;;;;5149582;27;20046;-63
2022/03/07 07:07:36;;;;;;;17.30;10.85;;;-1.10;99.90;;;;;;5148274;27;20506;-63
2022/03/07 07:10:06;;;;;;;16.55;10.05;;;-1.10;99.90;;;;;;5148784;27;20486;-63
2022/03/07 07:12:33;;;;;;;16.73;10.73;;;-1.00;99.90;;;;;;5150617;27;20042;-63
2022/03/07 07:14:58;;;;;;;16.60;10.30;;;-1.00;99.90;;;;;;5147726;27;20034;-63
2022/03/07 07:17:24;;;;;;;17.38;9.80;;;-1.00;99.90;;;;;;5148545;27;20039;-63
2022/03/07 07:19:50;;;;;;;19.13;10.48;;;-1.00;99.90;;;;;;5146884;27;20037;-63
2022/03/07 07:22:15;;;;;;;16.65;10.85;;;-0.90;99.90;;;;;;5149318;27;21348;-63
2022/03/07 07:24:42;;;;;;;16.40;11.10;;;-0.90;99.90;;;;;;5148838;27;20057;-63
2022/03/07 07:27:08;;;;;;;18.05;12.32;;;-0.80;99.90;;;;;;5147212;27;20506;-63
2022/03/07 07:29:33;;;;;;;20.02;12.00;;;-0.90;99.90;;;;;;5147582;27;20039;-63
2022/03/07 07:31:59;;;;;;;17.92;12.45;;;-0.90;99.90;;;;;;5164404;27;20355;-63
2022/03/07 07:34:25;;;;;;;18.05;12.55;;;-0.80;99.90;;;;;;5146719;27;20039;-63
2022/03/07 07:36:51;;;;;;;20.33;13.35;;;-0.80;99.90;;;;;;5149421;27;20047;-63
2022/03/07 07:39:17;;;;;;;17.52;12.10;;;-0.80;99.90;;;;;;5147794;27;20459;-63
2022/03/07 07:41:43;;;;;;;20.17;13.10;;;-0.70;99.90;;;;;;5131033;27;20713;-63
2022/03/07 07:44:08;;;;;;;21.73;12.90;;;-0.60;99.90;;;;;;5150095;27;20457;-63
2022/03/07 07:46:34;;;;;;;19.38;12.75;;;-0.60;99.90;;;;;;5148705;27;20049;-63
2022/03/07 07:49:00;;;;;;;24.42;15.57;;;-0.50;99.90;;;;;;5145841;27;20043;-63
2022/03/07 07:51:26;;;;;;;21.25;14.52;;;-0.40;99.90;;;;;;5148233;27;20553;-63
2022/03/07 07:53:51;;;;;;;24.08;15.68;;;-0.30;99.90;;;;;;5147703;27;20430;-63
2022/03/07 07:56:17;;;;;;;23.35;15.63;;;-0.20;99.90;;;;;;5144676;27;20038;-63
2022/03/07 07:58:43;;;;;;;21.33;15.10;;;-0.10;99.90;;;;;;5148234;27;20371;-63
2022/03/07 08:01:09;;;;;;;23.88;15.70;;;0.00;99.90;;;;;;5147558;27;20033;-63
2022/03/07 08:03:35;;;;;;;22.50;15.60;;;0.20;99.90;;;;;;5143528;27;20095;-63
2022/03/07 08:06:01;;;;;;;19.38;13.93;;;0.30;99.90;;;;;;5147446;27;20537;-63
2022/03/07 08:08:27;;;;;;;21.73;14.65;;;0.40;99.90;;;;;;5149531;27;20035;-63
2022/03/07 08:10:53;;;;;;;21.60;14.23;;;0.60;99.90;;;;;;5148268;27;20035;-63
2022/03/07 08:13:18;;;;;;;19.92;13.18;;;1.20;99.90;;;;;;5149162;27;20038;-63
2022/03/07 08:15:44;;;;;;;19.73;13.95;;;1.00;99.90;;;;;;5147744;27;20039;-63
2022/03/07 08:18:10;;;;;;;22.17;13.18;;;1.30;99.90;;;;;;5149202;27;20035;-63
2022/03/07 08:20:36;;;;;;;18.02;12.57;;;1.20;99.90;;;;;;5148084;27;20030;-63
2022/03/07 08:23:02;;;;;;;19.15;13.50;;;1.30;99.90;;;;;;5148871;27;20094;-63
2022/03/07 08:25:28;;;;;;;18.33;11.82;;;1.50;99.90;;;;;;5148557;27;20047;-63
2022/03/07 08:27:54;;;;;;;17.40;11.23;;;1.70;99.90;;;;;;5148752;27;20038;-63
2022/03/07 08:30:22;;;;;;;16.23;10.95;;;1.80;99.90;;;;;;5151133;27;20033;-63
2022/03/07 08:32:49;;;;;;;18.90;10.70;;;1.90;99.90;;;;;;5149699;27;20041;-64
2022/03/07 08:35:16;;;;;;;16.17;10.43;;;2.10;99.90;;;;;;5145936;27;20114;-63
2022/03/07 08:37:45;;;;;;;17.13;9.85;;;2.20;99.90;;;;;;5146818;27;20031;-63
2022/03/07 08:40:12;;;;;;;16.67;10.00;;;2.40;99.90;;;;;;5145525;27;20034;-63
2022/03/07 08:42:37;;;;;;;13.45;9.30;;;2.40;99.90;;;;;;5148886;27;20117;-63
2022/03/07 08:45:05;;;;;;;15.23;9.60;;;2.50;99.90;;;;;;5146216;27;20134;-63
2022/03/07 08:47:30;;;;;;;15.50;10.30;;;2.60;99.90;;;;;;5147054;27;20030;-63
2022/03/07 08:49:56;;;;;;;13.77;10.43;;;2.70;99.90;;;;;;5147778;27;20053;-63
2022/03/07 08:52:22;;;;;;;19.25;10.82;;;2.70;99.90;;;;;;5149084;27;20487;-63
2022/03/07 08:54:47;;;;;;;17.67;10.82;;;2.80;99.90;;;;;;5143574;27;20485;-63
2022/03/07 08:57:14;;;;;;;15.02;10.52;;;2.90;99.90;;;;;;5124333;27;20118;-63
2022/03/07 08:59:41;;;;;;;14.77;9.85;;;3.00;99.90;;;;;;5141383;27;20035;-63
2022/03/07 09:02:09;;;;;;;15.07;10.35;;;3.10;99.90;;;;;;5147264;27;20054;-64
2022/03/07 09:04:35;;;;;;;16.50;10.80;;;3.20;99.90;;;;;;5146045;27;20039;-63
2022/03/07 09:07:01;;;;;;;11.88;9.10;;;3.30;99.90;;;;;;5145973;27;20126;-63
2022/03/07 09:09:27;;;;;;;13.82;9.32;;;3.40;99.90;;;;;;5145789;27;20152;-64
2022/03/07 09:11:53;;;;;;;13.27;9.48;;;3.50;99.90;;;;;;5148033;27;20034;-63
2022/03/07 09:14:19;;;;;;;12.15;8.98;;;3.70;99.90;;;;;;5141850;27;20038;-63
2022/03/07 09:16:45;;;;;;;11.68;8.18;;;3.80;99.90;;;;;;5136258;27;20179;-63
2022/03/07 09:19:11;;;;;;;12.00;7.10;;;4.00;99.90;;;;;;5143772;27;20032;-63
2022/03/07 09:21:36;;;;;;;9.07;7.68;;;4.10;99.90;;;;;;5144881;27;20061;-63
2022/03/07 09:24:02;;;;;;;12.52;7.38;;;4.20;99.90;;;;;;5146280;27;20478;-63
2022/03/07 09:26:28;;;;;;;11.80;8.48;;;4.30;99.90;;;;;;5142573;27;20066;-63
2022/03/07 09:28:54;;;;;;;11.98;7.72;;;4.40;99.90;;;;;;5144364;27;20118;-64
2022/03/07 09:31:19;;;;;;;11.15;8.43;;;4.50;99.90;;;;;;5144471;27;20133;-64
2022/03/07 09:33:46;;;;;;;10.85;7.47;;;4.50;99.90;;;;;;5148235;27;20126;-64
2022/03/07 09:36:12;;;;;;;10.45;7.57;;;4.40;99.90;;;;;;5146875;27;20063;-64
2022/03/07 09:38:38;;;;;;;10.65;6.07;;;4.40;99.90;;;;;;5143136;27;20470;-64
2022/03/07 09:41:05;;;;;;;9.80;5.68;;;4.50;99.90;;;;;;5148970;27;20490;-64
2022/03/07 09:43:31;;;;;;;7.32;5.20;;;4.60;99.90;;;;;;5148808;27;20145;-64
2022/03/07 09:45:57;;;;;;;9.68;6.43;;;4.70;99.90;;;;;;5150400;27;20186;-64
2022/03/07 09:48:25;;;;;;;10.23;6.40;;;4.80;99.90;;;;;;5146602;27;20457;-64
2022/03/07 09:50:52;;;;;;;9.27;6.65;;;5.00;99.90;;;;;;5151617;27;20034;-64
2022/03/07 09:53:18;;;;;;;8.48;6.50;;;4.90;99.90;;;;;;5148866;27;20046;-64
2022/03/07 09:55:47;;;;;;;8.57;6.45;;;5.00;99.90;;;;;;5151851;27;20043;-64
2022/03/07 09:58:14;;;;;;;9.82;7.00;;;5.00;99.90;;;;;;5147489;27;20063;-64
2022/03/07 10:00:41;;;;;;;10.18;7.10;;;5.00;99.90;;;;;;5166058;27;20186;-64
2022/03/07 10:03:09;;;;;;;10.73;6.50;;;5.00;99.90;;;;;;5148914;27;21514;-64
2022/03/07 10:05:47;;;;;;;9.10;5.82;;;4.70;99.90;;;;;;5148514;27;20046;-64
2022/03/07 10:08:27;;;;;;;11.45;6.90;;;5.00;99.90;;;;;;5147095;27;20135;-64
2022/03/07 10:10:54;;;;;;;7.28;4.75;;;5.00;99.90;;;;;;5148353;27;20074;-64
2022/03/07 10:13:21;;;;;;;6.32;4.80;;;5.10;99.90;;;;;;5150001;27;20043;-64
2022/03/07 10:15:59;;;;;;;9.23;5.20;;;5.20;99.90;;;;;;5149727;27;20413;-64
2022/03/07 10:18:25;;;;;;;11.35;6.28;;;5.20;99.90;;;;;;5146540;27;20059;-64
2022/03/07 10:20:54;;;;;;;7.55;5.15;;;5.20;99.90;;;;;;5149965;27;20374;-64
2022/03/07 10:23:21;;;;;;;9.25;5.78;;;5.20;99.90;;;;;;5148035;27;20388;-64
2022/03/07 10:25:47;;;;;;;8.05;4.78;;;5.30;99.90;;;;;;5146677;27;20126;-64
2022/03/07 10:28:14;;;;;;;7.70;4.40;;;5.30;99.90;;;;;;5147977;27;20058;-64
2022/03/07 10:30:40;;;;;;;8.35;5.00;;;5.40;99.90;;;;;;5148126;27;20042;-64
2022/03/07 10:33:10;;;;;;;7.57;4.60;;;5.50;99.90;;;;;;5147882;27;20441;-64
2022/03/07 10:35:37;;;;;;;6.70;4.57;;;5.60;99.90;;;;;;5150207;27;20042;-64
2022/03/07 10:38:05;;;;;;;6.47;4.15;;;5.60;99.90;;;;;;5148612;27;20435;-64
2022/03/07 10:40:32;;;;;;;6.50;4.13;;;5.60;99.90;;;;;;5150319;27;20402;-64
2022/03/07 10:43:00;;;;;;;7.90;4.22;;;5.70;99.90;;;;;;5131552;27;20034;-62
2022/03/07 10:45:27;;;;;;;9.32;4.10;;;5.80;99.90;;;;;;5147710;27;20059;-63
2022/03/07 10:47:55;;;;;;;7.72;3.70;;;6.00;99.90;;;;;;5150519;27;20038;-63
2022/03/07 10:50:26;;;;;;;7.40;4.25;;;6.10;99.90;;;;;;5150313;27;20046;-64
2022/03/07 10:53:02;;;;;;;5.32;4.25;;;6.10;99.90;;;;;;5145677;27;20487;-63
2022/03/07 10:55:29;;;;;;;;;;;6.30;99.90;;;;;;5136368;27;20055;-64
2022/03/07 10:58:09;;;;;;;7.57;4.00;;;6.40;99.90;;;;;;5149333;27;19975;-64
2022/03/07 11:00:48;;;;;;;7.32;3.85;;;6.40;99.90;;;;;;5149909;27;20050;-63
2022/03/07 11:03:23;;;;;;;5.55;3.83;;;6.50;99.90;;;;;;5142108;27;20066;-64
2022/03/07 11:05:49;;;;;;;7.47;4.25;;;6.50;99.90;;;;;;5146750;27;20495;-64
2022/03/07 11:08:16;;;;;;;7.25;4.40;;;6.60;99.90;;;;;;5150179;27;20161;-64
2022/03/07 11:10:47;;;;;;;7.20;4.38;;;6.70;99.90;;;;;;5144958;27;20126;-64
2022/03/07 11:13:15;;;;;;;8.15;4.03;;;6.80;99.90;;;;;;5140531;27;20487;-64
2022/03/07 11:15:42;;;;;;;6.68;4.80;;;6.80;99.90;;;;;;5148876;27;20061;-64
2022/03/07 11:18:11;;;;;;;8.70;3.97;;;6.80;99.90;;;;;;5147451;27;20034;-64
2022/03/07 11:20:40;;;;;;;5.97;3.70;;;6.80;99.90;;;;;;5145692;27;20471;-64
2022/03/07 11:23:06;;;;;;;7.10;3.40;;;6.90;99.90;;;;;;5146000;27;20073;-64
2022/03/07 11:25:34;;;;;;;6.90;3.42;;;6.90;99.90;;;;;;5145793;27;20043;-63
2022/03/07 11:28:01;;;;;;;5.68;3.40;;;6.90;99.90;;;;;;5146252;27;20046;-64
2022/03/07 11:30:36;;;;;;;7.05;3.35;;;7.00;99.90;;;;;;5146366;27;20129;-63
2022/03/07 11:33:12;;;;;;;6.40;3.17;;;7.10;99.90;;;;;;5147874;27;20037;-64
2022/03/07 11:35:42;;;;;;;6.72;3.15;;;7.30;99.90;;;;;;5148583;27;20066;-64
2022/03/07 11:38:18;;;;;;;5.53;3.20;;;7.30;99.90;;;;;;5143119;27;20457;-64
2022/03/07 11:40:57;;;;;;;6.15;3.40;;;7.20;99.90;;;;;;5147701;27;20050;-64
2022/03/07 11:43:25;;;;;;;7.38;3.58;;;7.10;99.90;;;;;;5145890;27;20034;-64
2022/03/07 11:45:57;;;;;;;5.47;2.88;;;7.10;99.90;;;;;;5141786;27;20057;-64
2022/03/07 11:48:23;;;;;;;4.20;3.10;;;7.20;99.90;;;;;;5143149;27;20042;-64
2022/03/07 11:50:49;;;;;;;5.22;3.10;;;7.40;99.90;;;;;;5148333;27;20486;-63
2022/03/07 11:53:16;;;;;;;8.52;3.50;;;7.50;99.90;;;;;;5146057;27;20047;-64
2022/03/07 11:55:44;;;;;;;4.43;3.25;;;7.60;99.90;;;;;;5144197;27;20035;-64
2022/03/07 11:58:10;;;;;;;5.53;3.30;;;7.50;99.90;;;;;;5147734;27;20046;-63
2022/03/07 12:00:36;;;;;;;5.05;3.35;;;7.60;99.90;;;;;;5142788;27;20038;-64
2022/03/07 12:03:22;;;;;;;4.22;2.80;;;7.60;99.90;;;;;;5147204;27;20089;-63
2022/03/07 12:06:04;;;;;;;4.18;2.50;;;7.70;99.90;;;;;;5129235;27;20418;-64
2022/03/07 12:08:41;;;;;;;6.85;2.80;;;7.60;99.90;;;;;;5146026;27;20461;-63
2022/03/07 12:11:09;;;;;;;4.40;3.05;;;7.90;99.90;;;;;;5142161;27;20096;-63
2022/03/07 12:13:47;;;;;;;5.50;3.45;;;7.90;99.90;;;;;;5143765;27;20043;-63
2022/03/07 12:16:27;;;;;;;5.20;2.45;;;8.00;99.90;;;;;;5149459;27;20134;-64
2022/03/07 12:19:16;;;;;;;5.63;2.42;;;7.90;99.90;;;;;;5147525;27;20483;-64
2022/03/07 12:21:43;;;;;;;4.75;2.90;;;8.00;99.90;;;;;;5146237;27;20035;-63
2022/03/07 12:24:11;;;;;;;6.05;2.80;;;8.00;99.90;;;;;;5147487;27;20133;-64
2022/03/07 12:26:54;;;;;;;6.22;3.00;;;8.00;99.90;;;;;;5148401;27;20458;-64
2022/03/07 12:29:24;;;;;;;8.00;2.80;;;8.00;99.90;;;;;;5148598;27;20047;-64
2022/03/07 12:32:03;;;;;;;6.63;2.70;;;8.00;99.90;;;;;;5163188;27;20045;-64
2022/03/07 12:34:32;;;;;;;4.55;2.50;;;8.10;99.90;;;;;;5145481;27;20042;-63
2022/03/07 12:37:01;;;;;;;5.50;2.60;;;8.00;99.90;;;;;;5144254;27;20034;-63
2022/03/07 12:39:29;;;;;;;3.38;2.22;;;8.00;99.90;;;;;;5149361;27;20027;-64